sensor_id;sensor_type;location;lat;lon;timestamp;P1;durP1;ratioP1;P2;durP2;ratioP2
69327;SDS011;56472;52.114;5.492;2023-05-20T00:00:43;1.60;;;0.80;;
69327;SDS011;56472;52.114;5.492;2023-05-20T00:03:16;1.02;;;0.93;;
69327;SDS011;56472;52.114;5.492;2023-05-20T00:08:12;1.38;;;1.00;;
69327;SDS011;56472;52.114;5.492;2023-05-20T00:10:39;0.90;;;0.90;;
69327;SDS011;56472;52.114;5.492;2023-05-20T00:13:06;2.70;;;1.00;;
69327;SDS011;56472;52.114;5.492;2023-05-20T00:15:33;0.90;;;0.90;;
69327;SDS011;56472;52.114;5.492;2023-05-20T00:18:02;0.80;;;0.80;;
69327;SDS011;56472;52.114;5.492;2023-05-20T00:20:29;1.90;;;1.30;;
69327;SDS011;56472;52.114;5.492;2023-05-20T00:22:57;0.80;;;0.80;;
69327;SDS011;56472;52.114;5.492;2023-05-20T00:25:24;1.27;;;0.70;;
69327;SDS011;56472;52.114;5.492;2023-05-20T00:27:51;0.77;;;0.70;;
69327;SDS011;56472;52.114;5.492;2023-05-20T00:30:18;0.90;;;0.90;;
69327;SDS011;56472;52.114;5.492;2023-05-20T00:32:46;1.05;;;0.93;;
69327;SDS011;56472;52.114;5.492;2023-05-20T00:35:13;1.45;;;0.95;;
69327;SDS011;56472;52.114;5.492;2023-05-20T00:37:40;1.00;;;1.00;;
69327;SDS011;56472;52.114;5.492;2023-05-20T00:40:07;0.90;;;0.90;;
69327;SDS011;56472;52.114;5.492;2023-05-20T00:42:34;0.85;;;0.85;;
69327;SDS011;56472;52.114;5.492;2023-05-20T00:45:01;0.80;;;0.80;;
69327;SDS011;56472;52.114;5.492;2023-05-20T00:47:29;0.82;;;0.80;;
69327;SDS011;56472;52.114;5.492;2023-05-20T00:50:00;1.00;;;1.00;;
69327;SDS011;56472;52.114;5.492;2023-05-20T00:52:28;0.93;;;0.93;;
69327;SDS011;56472;52.114;5.492;2023-05-20T00:54:57;1.08;;;0.80;;
69327;SDS011;56472;52.114;5.492;2023-05-20T00:57:25;1.17;;;0.80;;
69327;SDS011;56472;52.114;5.492;2023-05-20T00:59:52;1.10;;;1.00;;
69327;SDS011;56472;52.114;5.492;2023-05-20T01:02:19;1.05;;;0.90;;
69327;SDS011;56472;52.114;5.492;2023-05-20T01:04:47;1.05;;;1.05;;
69327;SDS011;56472;52.114;5.492;2023-05-20T01:07:15;1.10;;;1.00;;
69327;SDS011;56472;52.114;5.492;2023-05-20T01:09:43;1.02;;;1.02;;
69327;SDS011;56472;52.114;5.492;2023-05-20T01:12:12;0.90;;;0.90;;
69327;SDS011;56472;52.114;5.492;2023-05-20T01:14:50;2.13;;;1.00;;
69327;SDS011;56472;52.114;5.492;2023-05-20T01:17:29;1.60;;;0.90;;
69327;SDS011;56472;52.114;5.492;2023-05-20T01:20:00;1.60;;;1.00;;
69327;SDS011;56472;52.114;5.492;2023-05-20T01:22:28;0.90;;;0.90;;
69327;SDS011;56472;52.114;5.492;2023-05-20T01:24:55;1.10;;;1.00;;
69327;SDS011;56472;52.114;5.492;2023-05-20T01:27:24;1.08;;;0.98;;
69327;SDS011;56472;52.114;5.492;2023-05-20T01:29:51;1.08;;;0.98;;
69327;SDS011;56472;52.114;5.492;2023-05-20T01:32:25;2.88;;;0.93;;
69327;SDS011;56472;52.114;5.492;2023-05-20T01:35:06;0.82;;;0.80;;
69327;SDS011;56472;52.114;5.492;2023-05-20T01:37:35;0.90;;;0.90;;
69327;SDS011;56472;52.114;5.492;2023-05-20T01:40:05;0.80;;;0.77;;
69327;SDS011;56472;52.114;5.492;2023-05-20T01:42:34;0.80;;;0.80;;
69327;SDS011;56472;52.114;5.492;2023-05-20T01:45:02;0.88;;;0.88;;
69327;SDS011;56472;52.114;5.492;2023-05-20T01:47:30;0.90;;;0.90;;
69327;SDS011;56472;52.114;5.492;2023-05-20T01:49:57;2.35;;;1.10;;
69327;SDS011;56472;52.114;5.492;2023-05-20T01:52:25;0.95;;;0.95;;
69327;SDS011;56472;52.114;5.492;2023-05-20T01:54:52;1.13;;;0.85;;
69327;SDS011;56472;52.114;5.492;2023-05-20T01:57:20;1.10;;;1.00;;
69327;SDS011;56472;52.114;5.492;2023-05-20T01:59:49;1.58;;;0.90;;
69327;SDS011;56472;52.114;5.492;2023-05-20T02:02:17;0.95;;;0.75;;
69327;SDS011;56472;52.114;5.492;2023-05-20T02:04:44;0.90;;;0.80;;
69327;SDS011;56472;52.114;5.492;2023-05-20T02:07:14;1.10;;;0.93;;
69327;SDS011;56472;52.114;5.492;2023-05-20T02:09:44;1.17;;;1.08;;
69327;SDS011;56472;52.114;5.492;2023-05-20T02:12:11;1.90;;;1.00;;
69327;SDS011;56472;52.114;5.492;2023-05-20T02:14:43;1.40;;;1.30;;
69327;SDS011;56472;52.114;5.492;2023-05-20T02:17:11;1.33;;;1.20;;
69327;SDS011;56472;52.114;5.492;2023-05-20T02:19:41;1.20;;;1.10;;
69327;SDS011;56472;52.114;5.492;2023-05-20T02:22:12;1.02;;;0.90;;
69327;SDS011;56472;52.114;5.492;2023-05-20T02:24:42;1.60;;;0.95;;
69327;SDS011;56472;52.114;5.492;2023-05-20T02:27:09;1.58;;;0.80;;
69327;SDS011;56472;52.114;5.492;2023-05-20T02:29:36;1.23;;;1.08;;
69327;SDS011;56472;52.114;5.492;2023-05-20T02:32:03;0.95;;;0.90;;
69327;SDS011;56472;52.114;5.492;2023-05-20T02:34:30;1.00;;;0.85;;
69327;SDS011;56472;52.114;5.492;2023-05-20T02:36:58;1.27;;;1.17;;
69327;SDS011;56472;52.114;5.492;2023-05-20T02:39:25;0.70;;;0.70;;
69327;SDS011;56472;52.114;5.492;2023-05-20T02:41:53;1.00;;;1.00;;
69327;SDS011;56472;52.114;5.492;2023-05-20T02:44:21;1.55;;;0.98;;
69327;SDS011;56472;52.114;5.492;2023-05-20T02:46:48;0.73;;;0.73;;
69327;SDS011;56472;52.114;5.492;2023-05-20T02:49:15;0.70;;;0.70;;
69327;SDS011;56472;52.114;5.492;2023-05-20T02:51:43;0.95;;;0.95;;
69327;SDS011;56472;52.114;5.492;2023-05-20T02:54:09;1.05;;;0.90;;
69327;SDS011;56472;52.114;5.492;2023-05-20T02:56:37;0.80;;;0.80;;
69327;SDS011;56472;52.114;5.492;2023-05-20T02:59:04;1.33;;;1.00;;
69327;SDS011;56472;52.114;5.492;2023-05-20T03:01:32;1.15;;;0.90;;
69327;SDS011;56472;52.114;5.492;2023-05-20T03:04:01;1.15;;;0.98;;
69327;SDS011;56472;52.114;5.492;2023-05-20T03:06:29;1.00;;;1.00;;
69327;SDS011;56472;52.114;5.492;2023-05-20T03:08:57;0.80;;;0.80;;
69327;SDS011;56472;52.114;5.492;2023-05-20T03:11:24;0.90;;;0.90;;
69327;SDS011;56472;52.114;5.492;2023-05-20T03:13:51;1.50;;;0.90;;
69327;SDS011;56472;52.114;5.492;2023-05-20T03:16:18;1.02;;;0.93;;
69327;SDS011;56472;52.114;5.492;2023-05-20T03:18:45;2.72;;;1.27;;
69327;SDS011;56472;52.114;5.492;2023-05-20T03:21:12;0.90;;;0.90;;
69327;SDS011;56472;52.114;5.492;2023-05-20T03:23:39;1.10;;;1.00;;
69327;SDS011;56472;52.114;5.492;2023-05-20T03:26:06;2.47;;;0.90;;
69327;SDS011;56472;52.114;5.492;2023-05-20T03:28:34;0.80;;;0.80;;
69327;SDS011;56472;52.114;5.492;2023-05-20T03:31:01;0.88;;;0.80;;
69327;SDS011;56472;52.114;5.492;2023-05-20T03:33:30;1.02;;;1.02;;
69327;SDS011;56472;52.114;5.492;2023-05-20T03:35:59;1.13;;;0.90;;
69327;SDS011;56472;52.114;5.492;2023-05-20T03:38:26;1.00;;;1.00;;
69327;SDS011;56472;52.114;5.492;2023-05-20T03:40:53;0.70;;;0.70;;
69327;SDS011;56472;52.114;5.492;2023-05-20T03:43:20;1.08;;;0.88;;
69327;SDS011;56472;52.114;5.492;2023-05-20T03:45:47;0.90;;;0.90;;
69327;SDS011;56472;52.114;5.492;2023-05-20T03:48:14;0.85;;;0.85;;
69327;SDS011;56472;52.114;5.492;2023-05-20T03:50:41;0.85;;;0.85;;
69327;SDS011;56472;52.114;5.492;2023-05-20T03:53:09;0.75;;;0.75;;
69327;SDS011;56472;52.114;5.492;2023-05-20T03:55:39;0.88;;;0.88;;
69327;SDS011;56472;52.114;5.492;2023-05-20T03:58:07;0.80;;;0.80;;
69327;SDS011;56472;52.114;5.492;2023-05-20T04:00:34;1.90;;;1.00;;
69327;SDS011;56472;52.114;5.492;2023-05-20T04:03:01;1.23;;;0.80;;
69327;SDS011;56472;52.114;5.492;2023-05-20T04:05:29;0.80;;;0.80;;
69327;SDS011;56472;52.114;5.492;2023-05-20T04:07:56;2.50;;;0.80;;
69327;SDS011;56472;52.114;5.492;2023-05-20T04:10:23;1.58;;;0.90;;
69327;SDS011;56472;52.114;5.492;2023-05-20T04:12:51;0.70;;;0.70;;
69327;SDS011;56472;52.114;5.492;2023-05-20T04:15:20;0.80;;;0.80;;
69327;SDS011;56472;52.114;5.492;2023-05-20T04:17:55;3.08;;;1.10;;
69327;SDS011;56472;52.114;5.492;2023-05-20T04:20:22;1.00;;;1.00;;
69327;SDS011;56472;52.114;5.492;2023-05-20T04:22:53;0.82;;;0.80;;
69327;SDS011;56472;52.114;5.492;2023-05-20T04:25:20;0.80;;;0.70;;
69327;SDS011;56472;52.114;5.492;2023-05-20T04:27:47;0.80;;;0.80;;
69327;SDS011;56472;52.114;5.492;2023-05-20T04:30:16;0.90;;;0.90;;
69327;SDS011;56472;52.114;5.492;2023-05-20T04:32:43;0.88;;;0.88;;
69327;SDS011;56472;52.114;5.492;2023-05-20T04:35:11;0.88;;;0.88;;
69327;SDS011;56472;52.114;5.492;2023-05-20T04:37:42;0.90;;;0.90;;
69327;SDS011;56472;52.114;5.492;2023-05-20T04:40:19;0.90;;;0.90;;
69327;SDS011;56472;52.114;5.492;2023-05-20T04:42:46;1.02;;;0.80;;
69327;SDS011;56472;52.114;5.492;2023-05-20T04:45:14;0.70;;;0.70;;
69327;SDS011;56472;52.114;5.492;2023-05-20T04:47:41;1.35;;;1.00;;
69327;SDS011;56472;52.114;5.492;2023-05-20T04:50:10;0.88;;;0.82;;
69327;SDS011;56472;52.114;5.492;2023-05-20T04:52:39;0.90;;;0.90;;
69327;SDS011;56472;52.114;5.492;2023-05-20T04:55:11;0.93;;;0.93;;
69327;SDS011;56472;52.114;5.492;2023-05-20T04:57:39;2.05;;;0.90;;
69327;SDS011;56472;52.114;5.492;2023-05-20T05:00:08;0.70;;;0.70;;
69327;SDS011;56472;52.114;5.492;2023-05-20T05:02:37;0.80;;;0.80;;
69327;SDS011;56472;52.114;5.492;2023-05-20T05:05:04;1.27;;;0.90;;
69327;SDS011;56472;52.114;5.492;2023-05-20T05:07:32;1.00;;;1.00;;
69327;SDS011;56472;52.114;5.492;2023-05-20T05:09:59;1.45;;;1.00;;
69327;SDS011;56472;52.114;5.492;2023-05-20T05:12:28;1.75;;;0.75;;
69327;SDS011;56472;52.114;5.492;2023-05-20T05:14:56;0.88;;;0.88;;
69327;SDS011;56472;52.114;5.492;2023-05-20T05:17:24;0.80;;;0.80;;
69327;SDS011;56472;52.114;5.492;2023-05-20T05:19:51;0.80;;;0.80;;
69327;SDS011;56472;52.114;5.492;2023-05-20T05:22:18;1.33;;;1.02;;
69327;SDS011;56472;52.114;5.492;2023-05-20T05:24:45;1.08;;;0.88;;
69327;SDS011;56472;52.114;5.492;2023-05-20T05:27:12;0.90;;;0.90;;
69327;SDS011;56472;52.114;5.492;2023-05-20T05:29:39;0.80;;;0.80;;
69327;SDS011;56472;52.114;5.492;2023-05-20T05:32:06;0.80;;;0.80;;
69327;SDS011;56472;52.114;5.492;2023-05-20T05:34:33;2.95;;;1.00;;
69327;SDS011;56472;52.114;5.492;2023-05-20T05:37:01;4.03;;;3.63;;
69327;SDS011;56472;52.114;5.492;2023-05-20T05:39:29;3.83;;;3.15;;
69327;SDS011;56472;52.114;5.492;2023-05-20T05:41:56;10.43;;;7.75;;
69327;SDS011;56472;52.114;5.492;2023-05-20T05:44:23;17.90;;;12.68;;
69327;SDS011;56472;52.114;5.492;2023-05-20T05:46:50;25.17;;;19.17;;
69327;SDS011;56472;52.114;5.492;2023-05-20T05:49:17;27.00;;;19.30;;
69327;SDS011;56472;52.114;5.492;2023-05-20T05:51:44;25.98;;;16.98;;
69327;SDS011;56472;52.114;5.492;2023-05-20T05:54:11;26.48;;;18.20;;
69327;SDS011;56472;52.114;5.492;2023-05-20T05:56:38;24.65;;;15.95;;
69327;SDS011;56472;52.114;5.492;2023-05-20T05:59:05;19.77;;;15.50;;
69327;SDS011;56472;52.114;5.492;2023-05-20T06:01:32;17.98;;;13.13;;
69327;SDS011;56472;52.114;5.492;2023-05-20T06:03:59;20.33;;;12.45;;
69327;SDS011;56472;52.114;5.492;2023-05-20T06:06:27;16.25;;;11.70;;
69327;SDS011;56472;52.114;5.492;2023-05-20T06:08:53;12.80;;;10.50;;
69327;SDS011;56472;52.114;5.492;2023-05-20T06:11:21;13.15;;;10.15;;
69327;SDS011;56472;52.114;5.492;2023-05-20T06:13:50;13.35;;;9.63;;
69327;SDS011;56472;52.114;5.492;2023-05-20T06:16:17;13.32;;;8.85;;
69327;SDS011;56472;52.114;5.492;2023-05-20T06:18:44;9.90;;;7.30;;
69327;SDS011;56472;52.114;5.492;2023-05-20T06:21:12;9.32;;;8.30;;
69327;SDS011;56472;52.114;5.492;2023-05-20T06:23:39;8.73;;;7.18;;
69327;SDS011;56472;52.114;5.492;2023-05-20T06:26:09;8.95;;;7.68;;
69327;SDS011;56472;52.114;5.492;2023-05-20T06:28:37;10.38;;;7.72;;
69327;SDS011;56472;52.114;5.492;2023-05-20T06:31:04;12.13;;;7.35;;
69327;SDS011;56472;52.114;5.492;2023-05-20T06:33:33;9.48;;;7.10;;
69327;SDS011;56472;52.114;5.492;2023-05-20T06:38:32;8.35;;;6.20;;
69327;SDS011;56472;52.114;5.492;2023-05-20T06:41:00;6.68;;;5.82;;
69327;SDS011;56472;52.114;5.492;2023-05-20T06:43:27;12.75;;;6.18;;
69327;SDS011;56472;52.114;5.492;2023-05-20T06:46:08;5.75;;;5.15;;
69327;SDS011;56472;52.114;5.492;2023-05-20T06:48:49;7.10;;;5.40;;
69327;SDS011;56472;52.114;5.492;2023-05-20T06:51:17;7.93;;;5.38;;
69327;SDS011;56472;52.114;5.492;2023-05-20T06:53:46;5.68;;;4.60;;
69327;SDS011;56472;52.114;5.492;2023-05-20T06:56:14;8.32;;;4.35;;
69327;SDS011;56472;52.114;5.492;2023-05-20T06:58:41;4.25;;;3.88;;
69327;SDS011;56472;52.114;5.492;2023-05-20T07:01:08;4.90;;;4.40;;
69327;SDS011;56472;52.114;5.492;2023-05-20T07:03:36;6.82;;;4.03;;
69327;SDS011;56472;52.114;5.492;2023-05-20T07:06:04;4.68;;;4.05;;
69327;SDS011;56472;52.114;5.492;2023-05-20T07:08:31;4.75;;;3.60;;
69327;SDS011;56472;52.114;5.492;2023-05-20T07:10:58;4.03;;;3.63;;
69327;SDS011;56472;52.114;5.492;2023-05-20T07:13:25;4.55;;;3.78;;
69327;SDS011;56472;52.114;5.492;2023-05-20T07:15:52;3.63;;;3.33;;
69327;SDS011;56472;52.114;5.492;2023-05-20T07:18:19;3.50;;;3.28;;
69327;SDS011;56472;52.114;5.492;2023-05-20T07:20:51;3.28;;;3.00;;
69327;SDS011;56472;52.114;5.492;2023-05-20T07:23:29;4.35;;;2.90;;
69327;SDS011;56472;52.114;5.492;2023-05-20T07:25:56;3.70;;;3.40;;
69327;SDS011;56472;52.114;5.492;2023-05-20T07:28:23;3.40;;;2.80;;
69327;SDS011;56472;52.114;5.492;2023-05-20T07:30:50;2.97;;;2.70;;
69327;SDS011;56472;52.114;5.492;2023-05-20T07:33:23;3.00;;;2.70;;
69327;SDS011;56472;52.114;5.492;2023-05-20T07:35:51;2.75;;;2.55;;
69327;SDS011;56472;52.114;5.492;2023-05-20T07:38:20;2.67;;;2.47;;
69327;SDS011;56472;52.114;5.492;2023-05-20T07:40:54;2.53;;;2.33;;
69327;SDS011;56472;52.114;5.492;2023-05-20T07:43:22;2.45;;;2.25;;
69327;SDS011;56472;52.114;5.492;2023-05-20T07:45:49;2.90;;;2.47;;
69327;SDS011;56472;52.114;5.492;2023-05-20T07:48:16;2.45;;;2.25;;
69327;SDS011;56472;52.114;5.492;2023-05-20T07:50:43;2.15;;;2.05;;
69327;SDS011;56472;52.114;5.492;2023-05-20T07:53:11;2.30;;;2.00;;
69327;SDS011;56472;52.114;5.492;2023-05-20T07:55:38;2.00;;;1.90;;
69327;SDS011;56472;52.114;5.492;2023-05-20T07:58:05;1.85;;;1.75;;
69327;SDS011;56472;52.114;5.492;2023-05-20T08:00:33;2.28;;;1.98;;
69327;SDS011;56472;52.114;5.492;2023-05-20T08:03:04;2.33;;;2.13;;
69327;SDS011;56472;52.114;5.492;2023-05-20T08:05:56;2.08;;;1.98;;
69327;SDS011;56472;52.114;5.492;2023-05-20T08:08:24;1.88;;;1.77;;
69327;SDS011;56472;52.114;5.492;2023-05-20T08:13:25;2.05;;;1.80;;
69327;SDS011;56472;52.114;5.492;2023-05-20T08:15:55;1.95;;;1.85;;
69327;SDS011;56472;52.114;5.492;2023-05-20T08:18:23;1.90;;;1.77;;
69327;SDS011;56472;52.114;5.492;2023-05-20T08:20:50;1.52;;;1.50;;
69327;SDS011;56472;52.114;5.492;2023-05-20T08:23:17;1.67;;;1.58;;
69327;SDS011;56472;52.114;5.492;2023-05-20T08:25:44;3.30;;;1.73;;
69327;SDS011;56472;52.114;5.492;2023-05-20T08:28:14;2.67;;;1.55;;
69327;SDS011;56472;52.114;5.492;2023-05-20T08:30:41;1.73;;;1.63;;
69327;SDS011;56472;52.114;5.492;2023-05-20T08:33:08;1.52;;;1.42;;
69327;SDS011;56472;52.114;5.492;2023-05-20T08:35:35;1.88;;;1.77;;
69327;SDS011;56472;52.114;5.492;2023-05-20T08:38:05;1.67;;;1.58;;
69327;SDS011;56472;52.114;5.492;2023-05-20T08:40:33;1.50;;;1.40;;
69327;SDS011;56472;52.114;5.492;2023-05-20T08:43:01;1.65;;;1.55;;
69327;SDS011;56472;52.114;5.492;2023-05-20T08:45:33;1.20;;;1.20;;
69327;SDS011;56472;52.114;5.492;2023-05-20T08:48:06;1.33;;;1.23;;
69327;SDS011;56472;52.114;5.492;2023-05-20T08:50:33;1.50;;;1.40;;
69327;SDS011;56472;52.114;5.492;2023-05-20T08:53:00;1.10;;;1.10;;
69327;SDS011;56472;52.114;5.492;2023-05-20T08:58:04;1.48;;;1.38;;
69327;SDS011;56472;52.114;5.492;2023-05-20T09:00:31;1.30;;;1.30;;
69327;SDS011;56472;52.114;5.492;2023-05-20T09:02:58;1.23;;;1.23;;
69327;SDS011;56472;52.114;5.492;2023-05-20T09:05:26;1.45;;;1.35;;
69327;SDS011;56472;52.114;5.492;2023-05-20T09:08:03;1.63;;;1.30;;
69327;SDS011;56472;52.114;5.492;2023-05-20T09:10:32;1.40;;;1.23;;
69327;SDS011;56472;52.114;5.492;2023-05-20T09:13:00;1.25;;;1.17;;
69327;SDS011;56472;52.114;5.492;2023-05-20T09:15:27;1.05;;;1.05;;
69327;SDS011;56472;52.114;5.492;2023-05-20T09:17:58;1.40;;;1.30;;
69327;SDS011;56472;52.114;5.492;2023-05-20T09:20:29;1.08;;;1.08;;
69327;SDS011;56472;52.114;5.492;2023-05-20T09:22:58;1.00;;;1.00;;
69327;SDS011;56472;52.114;5.492;2023-05-20T09:25:30;0.90;;;0.90;;
69327;SDS011;56472;52.114;5.492;2023-05-20T09:27:57;1.58;;;1.30;;
69327;SDS011;56472;52.114;5.492;2023-05-20T09:30:24;1.02;;;1.02;;
69327;SDS011;56472;52.114;5.492;2023-05-20T09:32:55;1.10;;;1.10;;
69327;SDS011;56472;52.114;5.492;2023-05-20T09:35:23;1.10;;;1.10;;
69327;SDS011;56472;52.114;5.492;2023-05-20T09:37:55;1.30;;;1.20;;
69327;SDS011;56472;52.114;5.492;2023-05-20T09:40:24;1.10;;;1.10;;
69327;SDS011;56472;52.114;5.492;2023-05-20T09:42:53;0.90;;;0.90;;
69327;SDS011;56472;52.114;5.492;2023-05-20T09:45:22;1.00;;;1.00;;
69327;SDS011;56472;52.114;5.492;2023-05-20T09:47:50;1.00;;;1.00;;
69327;SDS011;56472;52.114;5.492;2023-05-20T09:50:19;0.93;;;0.93;;
69327;SDS011;56472;52.114;5.492;2023-05-20T09:52:47;2.00;;;1.25;;
69327;SDS011;56472;52.114;5.492;2023-05-20T09:55:15;1.08;;;1.08;;
69327;SDS011;56472;52.114;5.492;2023-05-20T09:57:44;1.25;;;0.90;;
69327;SDS011;56472;52.114;5.492;2023-05-20T10:00:12;1.25;;;1.00;;
69327;SDS011;56472;52.114;5.492;2023-05-20T10:02:43;0.80;;;0.80;;
69327;SDS011;56472;52.114;5.492;2023-05-20T10:22:00;0.88;;;0.88;;
69327;SDS011;56472;52.114;5.492;2023-05-20T10:24:31;1.00;;;1.00;;
69327;SDS011;56472;52.114;5.492;2023-05-20T10:27:03;1.15;;;1.15;;
69327;SDS011;56472;52.114;5.492;2023-05-20T10:29:48;1.05;;;0.75;;
69327;SDS011;56472;52.114;5.492;2023-05-20T10:32:26;2.33;;;0.95;;
69327;SDS011;56472;52.114;5.492;2023-05-20T10:34:58;1.00;;;0.93;;
69327;SDS011;56472;52.114;5.492;2023-05-20T10:37:27;0.70;;;0.70;;
69327;SDS011;56472;52.114;5.492;2023-05-20T10:40:30;1.63;;;1.00;;
69327;SDS011;56472;52.114;5.492;2023-05-20T10:42:50;1.33;;;0.90;;
69327;SDS011;56472;52.114;5.492;2023-05-20T10:45:24;1.02;;;0.80;;
69327;SDS011;56472;52.114;5.492;2023-05-20T10:47:52;0.82;;;0.82;;
69327;SDS011;56472;52.114;5.492;2023-05-20T10:50:25;1.30;;;1.00;;
69327;SDS011;56472;52.114;5.492;2023-05-20T10:53:05;0.75;;;0.75;;
69327;SDS011;56472;52.114;5.492;2023-05-20T10:55:51;0.80;;;0.80;;
69327;SDS011;56472;52.114;5.492;2023-05-20T10:58:23;0.90;;;0.90;;
69327;SDS011;56472;52.114;5.492;2023-05-20T11:00:52;1.23;;;1.13;;
69327;SDS011;56472;52.114;5.492;2023-05-20T11:03:20;0.90;;;0.90;;
69327;SDS011;56472;52.114;5.492;2023-05-20T11:05:48;1.00;;;1.00;;
69327;SDS011;56472;52.114;5.492;2023-05-20T11:08:16;1.30;;;1.20;;
69327;SDS011;56472;52.114;5.492;2023-05-20T11:10:55;1.10;;;1.10;;
69327;SDS011;56472;52.114;5.492;2023-05-20T11:13:23;1.00;;;1.00;;
69327;SDS011;56472;52.114;5.492;2023-05-20T11:15:51;1.88;;;1.25;;
69327;SDS011;56472;52.114;5.492;2023-05-20T11:18:18;1.27;;;1.17;;
69327;SDS011;56472;52.114;5.492;2023-05-20T11:20:45;1.15;;;1.15;;
69327;SDS011;56472;52.114;5.492;2023-05-20T11:23:13;1.35;;;1.20;;
69327;SDS011;56472;52.114;5.492;2023-05-20T11:25:41;1.00;;;1.00;;
69327;SDS011;56472;52.114;5.492;2023-05-20T11:28:11;1.00;;;1.00;;
69327;SDS011;56472;52.114;5.492;2023-05-20T11:30:40;0.93;;;0.93;;
69327;SDS011;56472;52.114;5.492;2023-05-20T11:33:10;1.02;;;0.93;;
69327;SDS011;56472;52.114;5.492;2023-05-20T11:35:43;1.00;;;1.00;;
69327;SDS011;56472;52.114;5.492;2023-05-20T11:38:11;0.90;;;0.90;;
69327;SDS011;56472;52.114;5.492;2023-05-20T11:40:41;0.90;;;0.90;;
69327;SDS011;56472;52.114;5.492;2023-05-20T11:43:16;1.63;;;0.98;;
69327;SDS011;56472;52.114;5.492;2023-05-20T11:45:45;1.13;;;1.02;;
69327;SDS011;56472;52.114;5.492;2023-05-20T11:48:13;1.08;;;1.08;;
69327;SDS011;56472;52.114;5.492;2023-05-20T11:50:42;0.90;;;0.90;;
69327;SDS011;56472;52.114;5.492;2023-05-20T11:53:14;2.78;;;1.00;;
69327;SDS011;56472;52.114;5.492;2023-05-20T11:56:04;1.00;;;1.00;;
69327;SDS011;56472;52.114;5.492;2023-05-20T11:58:30;2.67;;;1.20;;
69327;SDS011;56472;52.114;5.492;2023-05-20T12:00:57;1.17;;;1.08;;
69327;SDS011;56472;52.114;5.492;2023-05-20T12:03:45;0.88;;;0.88;;
69327;SDS011;56472;52.114;5.492;2023-05-20T12:06:12;1.75;;;1.05;;
69327;SDS011;56472;52.114;5.492;2023-05-20T12:08:39;0.90;;;0.90;;
69327;SDS011;56472;52.114;5.492;2023-05-20T12:11:06;2.40;;;0.90;;
69327;SDS011;56472;52.114;5.492;2023-05-20T12:13:33;0.90;;;0.90;;
69327;SDS011;56472;52.114;5.492;2023-05-20T12:16:01;0.90;;;0.90;;
69327;SDS011;56472;52.114;5.492;2023-05-20T12:18:28;1.15;;;1.00;;
69327;SDS011;56472;52.114;5.492;2023-05-20T12:20:55;1.33;;;0.70;;
69327;SDS011;56472;52.114;5.492;2023-05-20T12:23:22;1.13;;;0.95;;
69327;SDS011;56472;52.114;5.492;2023-05-20T12:25:48;0.80;;;0.80;;
69327;SDS011;56472;52.114;5.492;2023-05-20T12:28:16;0.70;;;0.70;;
69327;SDS011;56472;52.114;5.492;2023-05-20T12:30:43;0.82;;;0.82;;
69327;SDS011;56472;52.114;5.492;2023-05-20T12:33:10;0.90;;;0.90;;
69327;SDS011;56472;52.114;5.492;2023-05-20T12:35:37;0.88;;;0.88;;
69327;SDS011;56472;52.114;5.492;2023-05-20T12:38:06;0.88;;;0.88;;
69327;SDS011;56472;52.114;5.492;2023-05-20T12:40:33;0.80;;;0.80;;
69327;SDS011;56472;52.114;5.492;2023-05-20T12:43:02;0.75;;;0.75;;
69327;SDS011;56472;52.114;5.492;2023-05-20T12:45:30;4.20;;;0.88;;
69327;SDS011;56472;52.114;5.492;2023-05-20T12:47:57;0.98;;;0.90;;
69327;SDS011;56472;52.114;5.492;2023-05-20T12:50:25;1.05;;;0.80;;
69327;SDS011;56472;52.114;5.492;2023-05-20T12:52:52;1.73;;;0.88;;
69327;SDS011;56472;52.114;5.492;2023-05-20T12:55:19;0.80;;;0.80;;
69327;SDS011;56472;52.114;5.492;2023-05-20T12:57:46;0.70;;;0.70;;
69327;SDS011;56472;52.114;5.492;2023-05-20T13:00:13;0.80;;;0.80;;
69327;SDS011;56472;52.114;5.492;2023-05-20T13:02:41;0.82;;;0.60;;
69327;SDS011;56472;52.114;5.492;2023-05-20T13:05:09;0.82;;;0.80;;
69327;SDS011;56472;52.114;5.492;2023-05-20T13:07:36;1.05;;;0.80;;
69327;SDS011;56472;52.114;5.492;2023-05-20T13:10:04;0.85;;;0.80;;
69327;SDS011;56472;52.114;5.492;2023-05-20T13:12:33;0.65;;;0.65;;
69327;SDS011;56472;52.114;5.492;2023-05-20T13:15:00;0.88;;;0.70;;
69327;SDS011;56472;52.114;5.492;2023-05-20T13:17:27;1.42;;;0.90;;
69327;SDS011;56472;52.114;5.492;2023-05-20T13:19:54;0.80;;;0.80;;
69327;SDS011;56472;52.114;5.492;2023-05-20T13:22:21;0.70;;;0.70;;
69327;SDS011;56472;52.114;5.492;2023-05-20T13:24:48;1.85;;;0.70;;
69327;SDS011;56472;52.114;5.492;2023-05-20T13:27:15;0.75;;;0.75;;
69327;SDS011;56472;52.114;5.492;2023-05-20T13:29:42;0.70;;;0.70;;
69327;SDS011;56472;52.114;5.492;2023-05-20T13:32:09;0.95;;;0.70;;
69327;SDS011;56472;52.114;5.492;2023-05-20T13:34:36;0.70;;;0.70;;
69327;SDS011;56472;52.114;5.492;2023-05-20T13:37:04;0.90;;;0.90;;
69327;SDS011;56472;52.114;5.492;2023-05-20T13:39:31;1.40;;;1.05;;
69327;SDS011;56472;52.114;5.492;2023-05-20T13:41:58;0.68;;;0.68;;
69327;SDS011;56472;52.114;5.492;2023-05-20T13:44:25;1.25;;;0.80;;
69327;SDS011;56472;52.114;5.492;2023-05-20T13:46:52;0.70;;;0.70;;
69327;SDS011;56472;52.114;5.492;2023-05-20T13:49:19;0.95;;;0.80;;
69327;SDS011;56472;52.114;5.492;2023-05-20T13:51:46;1.65;;;0.73;;
69327;SDS011;56472;52.114;5.492;2023-05-20T13:54:13;0.50;;;0.50;;
69327;SDS011;56472;52.114;5.492;2023-05-20T13:56:40;0.88;;;0.65;;
69327;SDS011;56472;52.114;5.492;2023-05-20T13:59:07;0.75;;;0.75;;
69327;SDS011;56472;52.114;5.492;2023-05-20T14:01:34;0.70;;;0.70;;
69327;SDS011;56472;52.114;5.492;2023-05-20T14:04:05;1.67;;;0.70;;
69327;SDS011;56472;52.114;5.492;2023-05-20T14:06:32;0.60;;;0.60;;
69327;SDS011;56472;52.114;5.492;2023-05-20T14:08:59;0.70;;;0.70;;
69327;SDS011;56472;52.114;5.492;2023-05-20T14:11:27;1.48;;;0.80;;
69327;SDS011;56472;52.114;5.492;2023-05-20T14:13:54;0.70;;;0.70;;
69327;SDS011;56472;52.114;5.492;2023-05-20T14:16:21;0.70;;;0.50;;
69327;SDS011;56472;52.114;5.492;2023-05-20T14:18:48;0.75;;;0.60;;
69327;SDS011;56472;52.114;5.492;2023-05-20T14:21:15;1.38;;;0.88;;
69327;SDS011;56472;52.114;5.492;2023-05-20T14:23:42;1.85;;;0.60;;
69327;SDS011;56472;52.114;5.492;2023-05-20T14:26:10;0.60;;;0.60;;
69327;SDS011;56472;52.114;5.492;2023-05-20T14:28:37;1.02;;;0.60;;
69327;SDS011;56472;52.114;5.492;2023-05-20T14:31:04;0.50;;;0.50;;
69327;SDS011;56472;52.114;5.492;2023-05-20T14:33:35;0.65;;;0.65;;
69327;SDS011;56472;52.114;5.492;2023-05-20T14:36:02;0.50;;;0.50;;
69327;SDS011;56472;52.114;5.492;2023-05-20T14:38:29;0.70;;;0.70;;
69327;SDS011;56472;52.114;5.492;2023-05-20T14:40:56;1.63;;;0.70;;
69327;SDS011;56472;52.114;5.492;2023-05-20T14:43:23;1.17;;;0.63;;
69327;SDS011;56472;52.114;5.492;2023-05-20T14:45:50;0.68;;;0.60;;
69327;SDS011;56472;52.114;5.492;2023-05-20T14:48:18;0.60;;;0.60;;
69327;SDS011;56472;52.114;5.492;2023-05-20T14:50:45;0.68;;;0.68;;
69327;SDS011;56472;52.114;5.492;2023-05-20T14:53:15;0.60;;;0.60;;
69327;SDS011;56472;52.114;5.492;2023-05-20T14:55:42;0.70;;;0.60;;
69327;SDS011;56472;52.114;5.492;2023-05-20T14:58:09;0.73;;;0.60;;
69327;SDS011;56472;52.114;5.492;2023-05-20T15:00:37;0.85;;;0.60;;
69327;SDS011;56472;52.114;5.492;2023-05-20T15:03:04;0.73;;;0.70;;
69327;SDS011;56472;52.114;5.492;2023-05-20T15:05:32;0.80;;;0.60;;
69327;SDS011;56472;52.114;5.492;2023-05-20T15:07:59;0.60;;;0.60;;
69327;SDS011;56472;52.114;5.492;2023-05-20T15:10:26;0.55;;;0.55;;
69327;SDS011;56472;52.114;5.492;2023-05-20T15:12:52;0.52;;;0.52;;
69327;SDS011;56472;52.114;5.492;2023-05-20T15:15:20;0.68;;;0.60;;
69327;SDS011;56472;52.114;5.492;2023-05-20T15:17:47;0.98;;;0.70;;
69327;SDS011;56472;52.114;5.492;2023-05-20T15:20:14;0.70;;;0.70;;